createdAt,value
2022-08-03T00:07:41.358Z,100313.58
2022-08-03T00:16:04.622Z,100315.92
2022-08-03T00:24:27.748Z,100325.65
2022-08-03T00:32:50.697Z,100328.16
2022-08-03T00:41:15.551Z,100324.76
2022-08-03T00:49:41.031Z,100330.40
2022-08-03T00:58:06.783Z,100338.73
2022-08-03T01:06:41.525Z,100336.10
2022-08-03T01:15:11.601Z,100333.36
2022-08-03T01:23:56.888Z,100328.27
2022-08-03T01:32:58.562Z,100324.41
2022-08-03T01:41:17.537Z,100324.17
2022-08-03T01:49:45.223Z,100325.20
2022-08-03T01:58:09.237Z,100326.94
2022-08-03T02:07:01.688Z,100314.48
2022-08-03T02:15:19.543Z,100313.56
2022-08-03T02:23:42.461Z,100314.36
2022-08-03T02:32:06.978Z,100318.87
2022-08-03T02:40:33.356Z,100319.65
2022-08-03T02:48:58.942Z,100326.03
2022-08-03T02:57:44.963Z,100329.99
2022-08-03T03:06:09.331Z,100330.98
2022-08-03T03:14:34.236Z,100336.09
2022-08-03T03:23:00.865Z,100340.88
2022-08-03T03:31:24.129Z,100342.34
2022-08-03T03:39:47.165Z,100347.52
2022-08-03T03:48:10.956Z,100347.61
2022-08-03T03:56:34.073Z,100353.35
2022-08-03T04:05:29.570Z,100355.26
2022-08-03T04:14:13.500Z,100360.31
2022-08-03T04:22:39.607Z,100367.19
2022-08-03T04:31:04.698Z,100365.35
2022-08-03T04:39:31.258Z,100367.89
2022-08-03T04:47:55.175Z,100374.73
2022-08-03T04:56:18.531Z,100379.64
2022-08-03T05:04:46.582Z,100381.11
2022-08-03T05:13:13.082Z,100381.23
2022-08-03T05:21:51.937Z,100384.36
2022-08-03T05:30:27.246Z,100382.97
2022-08-03T05:39:02.219Z,100387.70
2022-08-03T05:47:25.428Z,100394.39
2022-08-03T05:55:54.205Z,100395.30
2022-08-03T06:04:18.496Z,100397.26
2022-08-03T06:12:41.522Z,100395.98
2022-08-03T06:21:09.548Z,100405.70
2022-08-03T06:29:38.530Z,100411.20
2022-08-03T06:38:01.970Z,100414.16
2022-08-03T06:46:26.007Z,100418.20
2022-08-03T06:54:49.190Z,100412.20
2022-08-03T07:03:12.556Z,100411.12
2022-08-03T07:11:35.565Z,100411.30
2022-08-03T07:19:59.498Z,100414.11
2022-08-03T07:28:22.990Z,100413.27
2022-08-03T07:36:45.965Z,100416.84
2022-08-03T07:45:09.751Z,100420.60
2022-08-03T07:53:47.254Z,100429.15
2022-08-03T08:02:10.915Z,100425.20
2022-08-03T08:10:34.405Z,100422.23
2022-08-03T08:18:57.528Z,100430.89
2022-08-03T08:27:20.375Z,100435.30
2022-08-03T08:35:43.655Z,100440.04
2022-08-03T08:44:08.437Z,100441.02
2022-08-03T08:52:33.389Z,100439.10
2022-08-03T09:00:56.843Z,100441.98
2022-08-03T09:10:08.362Z,100440.98
2022-08-03T09:18:04.453Z,100436.34
2022-08-03T09:26:29.536Z,100438.58
2022-08-03T09:34:58.033Z,100436.38
2022-08-03T09:43:22.521Z,100437.73
2022-08-03T09:52:31.352Z,100438.09
2022-08-03T10:00:29.437Z,100432.78
2022-08-03T10:09:07.415Z,100426.98
2022-08-03T10:17:30.255Z,100418.56
2022-08-03T10:25:58.221Z,100426.25
2022-08-03T10:34:27.290Z,100423.36
2022-08-03T10:42:54.766Z,100422.49
2022-08-03T10:51:20.574Z,100422.11
2022-08-03T10:59:47.702Z,100418.75
2022-08-03T11:08:21.302Z,100417.78
2022-08-03T11:17:07.563Z,100413.80
2022-08-03T11:26:19.563Z,100411.51
2022-08-03T11:35:07.284Z,100403.16
2022-08-03T11:43:31.683Z,100393.30
2022-08-03T11:51:55.066Z,100388.96
2022-08-03T12:00:38.161Z,100388.85
2022-08-03T12:09:01.564Z,100387.77
2022-08-03T12:17:24.578Z,100383.29
2022-08-03T12:25:49.535Z,100379.38
2022-08-03T12:34:13.835Z,100371.24
2022-08-03T12:42:39.343Z,100361.86
2022-08-03T12:51:12.058Z,100364.84
2022-08-03T12:59:45.160Z,100355.64
2022-08-03T13:08:21.031Z,100344.31
2022-08-03T13:16:44.100Z,100341.84
2022-08-03T13:25:07.263Z,100332.66
2022-08-03T13:33:30.620Z,100324.84
2022-08-03T13:41:54.309Z,100317.54
2022-08-03T13:50:17.438Z,100311.55
2022-08-03T13:58:40.591Z,100304.58
2022-08-03T14:07:03.520Z,100302.91
2022-08-03T14:15:28.914Z,100297.20
2022-08-03T14:23:51.824Z,100294.98
2022-08-03T14:32:15.370Z,100291.15
2022-08-03T14:40:38.910Z,100287.61
2022-08-03T14:49:02.621Z,100282.33
2022-08-03T14:57:46.322Z,100284.38
2022-08-03T15:06:09.353Z,100287.35
2022-08-03T15:14:34.866Z,100280.48
2022-08-03T15:22:57.993Z,100277.83
2022-08-03T15:31:25.060Z,100272.73
2022-08-03T15:39:58.168Z,100266.16
2022-08-03T15:48:26.526Z,100264.83
2022-08-03T15:56:49.803Z,100258.94
2022-08-03T16:05:13.333Z,100248.74
2022-08-03T16:14:11.961Z,100243.46
2022-08-03T16:22:19.604Z,100234.91
2022-08-03T16:30:46.668Z,100231.04
2022-08-03T16:39:09.626Z,100229.70
2022-08-03T16:47:32.676Z,100231.45
2022-08-03T16:55:55.673Z,100233.04
2022-08-03T17:04:19.114Z,100234.77
2022-08-03T17:12:42.469Z,100240.97
2022-08-03T17:21:08.022Z,100247.80
2022-08-03T17:29:35.394Z,100257.27
2022-08-03T17:38:06.659Z,100265.98
2022-08-03T17:46:32.540Z,100273.50
2022-08-03T18:04:11.895Z,100292.27
2022-08-03T18:12:43.289Z,100298.77
2022-08-03T18:21:16.691Z,100312.50
2022-08-03T18:29:45.892Z,100319.24
2022-08-03T18:38:16.958Z,100329.98
2022-08-03T18:47:07.541Z,100346.61
2022-08-03T18:56:01.195Z,100358.74
2022-08-03T19:04:31.118Z,100362.42
2022-08-03T19:13:02.996Z,100367.13
2022-08-03T19:21:34.674Z,100369.02
2022-08-03T19:30:03.074Z,100374.82
2022-08-03T19:38:28.949Z,100376.66
2022-08-03T19:47:01.400Z,100380.00
2022-08-03T19:55:32.207Z,100383.48
2022-08-03T20:03:56.646Z,100392.52
2022-08-03T20:12:26.476Z,100389.57
2022-08-03T20:20:53.355Z,100392.36
2022-08-03T20:29:42.524Z,100390.94
2022-08-03T20:38:09.903Z,100392.28
2022-08-03T20:46:44.078Z,100389.54
2022-08-03T20:55:14.727Z,100391.38
2022-08-03T21:03:40.571Z,100398.59
2022-08-03T21:12:08.435Z,100400.47
2022-08-03T21:13:04.565Z,100286.13
2022-08-03T21:20:35.061Z,100400.29
2022-08-03T21:28:58.190Z,100408.66
2022-08-03T21:37:21.913Z,100416.27
2022-08-03T21:46:04.145Z,100422.27
2022-08-03T21:54:36.749Z,100419.22
2022-08-03T22:03:15.367Z,100419.84
2022-08-03T22:11:42.712Z,100420.80
2022-08-03T22:20:11.674Z,100417.92
2022-08-03T22:28:35.575Z,100420.48
2022-08-03T22:37:03.296Z,100421.58
2022-08-03T22:45:45.836Z,100417.65
2022-08-03T22:54:12.470Z,100418.34
2022-08-03T23:02:42.360Z,100415.63
2022-08-03T23:11:08.726Z,100414.06
2022-08-03T23:19:41.714Z,100413.30
2022-08-03T23:28:11.034Z,100403.80
2022-08-03T23:36:33.892Z,100404.10
2022-08-03T23:44:59.378Z,100401.40
2022-08-03T23:54:07.493Z,100403.34
